Time;durP1;ratioP1;P1;durP2;ratioP2;P2;SDS_P1;SDS_P2;PMS_P1;PMS_P2;Temp;Humidity;BMP_temperature;BMP_pressure;BME280_temperature;BME280_humidity;BME280_pressure;Samples;Min_cycle;Max_cycle;Signal;HPM_P1;HPM_P2
2022/04/08 00:00:57;;;;;;;6.88;0.60;;;5.50;99.90;;;;;;4920007;29;20127;-84
2022/04/08 00:03:25;;;;;;;6.72;0.82;;;5.50;99.90;;;;;;4920002;29;20139;-83
2022/04/08 00:05:52;;;;;;;5.80;1.08;;;5.50;99.90;;;;;;4903602;29;20059;-83
2022/04/08 00:08:19;;;;;;;2.90;0.50;;;5.60;99.90;;;;;;4902510;29;20047;-83
2022/04/08 00:10:44;;;;;;;8.43;0.82;;;5.70;99.90;;;;;;4919544;29;20092;-83
2022/04/08 00:13:10;;;;;;;8.10;1.00;;;5.60;99.90;;;;;;4919110;29;20040;-83
2022/04/08 00:15:38;;;;;;;9.32;1.45;;;5.50;99.90;;;;;;4918836;29;20048;-84
2022/04/08 00:18:04;;;;;;;12.30;1.50;;;5.50;99.90;;;;;;4919449;29;20067;-83
2022/04/08 00:20:32;;;;;;;1.88;0.80;;;5.40;99.90;;;;;;4919858;29;20045;-83
2022/04/08 00:22:58;;;;;;;7.82;1.15;;;5.40;99.90;;;;;;4903297;29;20137;-83
2022/04/08 00:25:24;;;;;;;8.27;2.03;;;5.40;99.90;;;;;;4919732;29;20514;-82
2022/04/08 00:27:50;;;;;;;7.28;1.27;;;5.40;99.90;;;;;;4920017;29;20048;-82
2022/04/08 00:30:16;;;;;;;9.15;2.00;;;5.30;99.90;;;;;;4903108;29;20052;-82
2022/04/08 00:32:41;;;;;;;10.18;1.30;;;5.30;99.90;;;;;;4918387;29;20040;-82
2022/04/08 00:35:08;;;;;;;9.00;1.42;;;5.20;99.90;;;;;;4919473;29;20384;-82
2022/04/08 00:37:35;;;;;;;10.68;1.40;;;5.10;99.90;;;;;;4919298;29;20063;-82
2022/04/08 00:40:01;;;;;;;8.40;1.85;;;5.10;99.90;;;;;;4902000;29;20059;-82
2022/04/08 00:42:26;;;;;;;3.85;0.90;;;5.10;99.90;;;;;;4919709;29;20059;-83
2022/04/08 00:44:52;;;;;;;12.02;1.50;;;5.10;99.90;;;;;;4903911;29;20522;-84
2022/04/08 00:47:18;;;;;;;8.88;1.20;;;5.00;99.90;;;;;;4902726;29;20062;-84
2022/04/08 00:49:44;;;;;;;11.32;1.63;;;5.00;99.90;;;;;;4919637;29;20052;-84
2022/04/08 00:52:10;;;;;;;13.98;2.42;;;5.00;99.90;;;;;;4902395;29;20040;-84
2022/04/08 00:54:37;;;;;;;11.85;1.38;;;5.10;99.90;;;;;;4903775;29;20048;-84
2022/04/08 00:57:03;;;;;;;7.78;1.10;;;5.10;99.90;;;;;;4918937;29;20036;-84
2022/04/08 00:59:29;;;;;;;13.20;2.28;;;5.20;99.90;;;;;;4902816;29;20052;-84
2022/04/08 01:01:59;;;;;;;18.48;2.53;;;5.20;99.90;;;;;;4919296;29;20051;-84
2022/04/08 01:04:27;;;;;;;12.57;1.42;;;5.30;99.90;;;;;;4902313;29;20402;-84
2022/04/08 01:06:53;;;;;;;6.50;1.00;;;5.30;99.90;;;;;;4902904;29;20123;-84
2022/04/08 01:09:19;;;;;;;11.98;1.50;;;5.40;99.90;;;;;;4901417;29;20056;-85
2022/04/08 01:11:45;;;;;;;14.35;2.17;;;5.40;99.90;;;;;;4918584;29;20047;-84
2022/04/08 01:14:12;;;;;;;12.73;1.70;;;5.40;99.90;;;;;;4902560;29;20059;-83
2022/04/08 01:16:38;;;;;;;12.20;1.83;;;5.50;99.90;;;;;;4922633;29;20072;-84
2022/04/08 01:19:05;;;;;;;14.57;1.75;;;5.60;99.90;;;;;;4905597;29;20060;-84
2022/04/08 01:21:34;;;;;;;12.75;2.03;;;5.60;99.90;;;;;;4922056;29;20092;-83
2022/04/08 01:24:01;;;;;;;18.10;2.33;;;5.70;99.90;;;;;;4905584;29;20058;-83
2022/04/08 01:26:26;;;;;;;7.57;1.17;;;5.80;99.90;;;;;;4904962;29;20488;-83
2022/04/08 01:28:55;;;;;;;18.13;2.22;;;5.80;99.90;;;;;;4922140;29;20044;-83
2022/04/08 01:31:23;;;;;;;12.73;1.65;;;5.90;99.90;;;;;;4904774;29;20071;-83
2022/04/08 01:33:50;;;;;;;12.38;1.65;;;5.90;99.90;;;;;;4921095;29;20522;-82
2022/04/08 01:36:17;;;;;;;8.80;0.95;;;6.00;99.90;;;;;;4903955;29;20054;-82
2022/04/08 01:38:42;;;;;;;11.75;1.48;;;6.10;99.90;;;;;;4924352;29;20043;-83
2022/04/08 01:41:08;;;;;;;13.07;2.72;;;6.10;99.90;;;;;;4923564;29;20448;-83
2022/04/08 01:43:34;;;;;;;9.07;1.20;;;6.10;99.90;;;;;;4921895;29;20044;-83
2022/04/08 01:46:00;;;;;;;13.63;2.00;;;6.20;99.90;;;;;;4904904;29;20152;-84
2022/04/08 01:48:26;;;;;;;11.45;1.50;;;6.20;99.90;;;;;;4922901;29;20028;-84
2022/04/08 01:50:51;;;;;;;6.53;1.70;;;6.20;99.90;;;;;;4921757;29;20040;-84
2022/04/08 01:53:17;;;;;;;6.82;1.17;;;6.20;99.90;;;;;;4904239;29;20076;-83
2022/04/08 01:55:43;;;;;;;12.57;1.30;;;6.20;99.90;;;;;;4905779;29;20084;-84
2022/04/08 01:58:10;;;;;;;10.75;2.40;;;6.30;99.90;;;;;;4921457;29;20051;-83
2022/04/08 02:00:39;;;;;;;9.35;1.20;;;6.30;99.90;;;;;;4904550;29;20055;-83
2022/04/08 02:03:04;;;;;;;8.68;1.63;;;6.30;99.90;;;;;;4903834;29;20052;-83
2022/04/08 02:05:30;;;;;;;17.40;2.17;;;6.30;99.90;;;;;;4904058;29;20055;-83
2022/04/08 02:07:56;;;;;;;10.48;1.65;;;6.30;99.90;;;;;;4903756;29;20052;-84
2022/04/08 02:10:24;;;;;;;6.00;1.40;;;6.30;99.90;;;;;;4921109;29;20040;-84
2022/04/08 02:12:49;;;;;;;10.23;1.67;;;6.30;99.90;;;;;;4903689;29;20052;-81
2022/04/08 02:15:15;;;;;;;9.00;1.83;;;6.30;99.90;;;;;;4903835;29;20051;-86
2022/04/08 02:17:41;;;;;;;9.70;1.73;;;6.30;99.90;;;;;;4904008;29;20044;-86
2022/04/08 02:20:10;;;;;;;18.48;1.63;;;6.30;99.90;;;;;;4903525;29;20511;-86
2022/04/08 02:22:35;;;;;;;14.80;1.98;;;6.30;99.90;;;;;;4903960;29;20052;-84
2022/04/08 02:25:02;;;;;;;9.18;1.85;;;6.40;99.90;;;;;;4921033;29;20509;-83
2022/04/08 02:27:29;;;;;;;9.23;1.40;;;6.40;99.90;;;;;;4903483;29;20071;-83
2022/04/08 02:29:59;;;;;;;11.60;1.08;;;6.40;99.90;;;;;;4920807;29;20040;-83
2022/04/08 02:32:25;;;;;;;6.35;1.42;;;6.40;99.90;;;;;;4903852;29;20121;-82
2022/04/08 02:34:52;;;;;;;14.02;1.67;;;6.20;99.90;;;;;;4921240;29;20040;-84
2022/04/08 02:37:18;;;;;;;8.82;0.88;;;6.00;99.90;;;;;;4904193;29;20059;-83
2022/04/08 02:39:44;;;;;;;3.83;1.00;;;5.80;99.90;;;;;;4900503;29;20061;-83
2022/04/08 02:42:09;;;;;;;5.32;1.10;;;5.70;99.90;;;;;;4901107;29;20111;-84
2022/04/08 02:44:35;;;;;;;4.25;0.60;;;5.50;99.90;;;;;;4900458;29;20802;-84
2022/04/08 02:47:02;;;;;;;3.15;0.90;;;5.40;99.90;;;;;;4885626;29;20050;-85
2022/04/08 02:49:28;;;;;;;5.03;1.25;;;5.30;99.90;;;;;;4884966;29;20084;-84
2022/04/08 02:51:54;;;;;;;4.97;0.77;;;5.30;99.90;;;;;;4884842;29;20068;-84
2022/04/08 02:54:19;;;;;;;7.05;1.00;;;5.30;99.90;;;;;;4883849;29;20052;-84
2022/04/08 02:56:45;;;;;;;6.75;1.10;;;5.40;99.90;;;;;;4900584;29;20056;-83
2022/04/08 02:59:11;;;;;;;8.00;1.65;;;5.50;99.90;;;;;;4902457;29;20055;-83
2022/04/08 03:01:38;;;;;;;6.80;1.50;;;5.70;99.90;;;;;;4900428;29;20055;-83
2022/04/08 03:04:06;;;;;;;9.00;1.52;;;5.80;99.90;;;;;;4901538;29;20137;-83
2022/04/08 03:06:32;;;;;;;6.53;1.20;;;5.80;99.90;;;;;;4901059;29;20057;-82
2022/04/08 03:08:58;;;;;;;11.57;1.98;;;5.70;99.90;;;;;;4884501;29;20053;-82
2022/04/08 03:11:27;;;;;;;9.43;2.00;;;5.80;99.90;;;;;;4900133;29;20052;-82
2022/04/08 03:13:52;;;;;;;13.13;2.00;;;5.70;99.90;;;;;;4899459;29;20132;-83
2022/04/08 03:16:18;;;;;;;9.93;1.40;;;5.80;99.90;;;;;;4882890;29;20128;-83
2022/04/08 03:18:46;;;;;;;9.65;2.97;;;5.70;99.90;;;;;;4900701;29;20044;-84
2022/04/08 03:21:14;;;;;;;30.88;3.78;;;5.80;99.90;;;;;;4900694;29;20440;-83
2022/04/08 03:23:40;;;;;;;11.98;1.20;;;5.80;99.90;;;;;;4884169;29;20136;-83
2022/04/08 03:26:06;;;;;;;6.35;1.77;;;5.80;99.90;;;;;;4884064;29;20056;-83
2022/04/08 03:28:31;;;;;;;5.15;1.00;;;5.80;99.90;;;;;;4900209;29;20120;-83
2022/04/08 03:30:58;;;;;;;4.65;1.10;;;5.70;99.90;;;;;;4883143;29;20127;-81
2022/04/08 03:33:23;;;;;;;10.10;1.60;;;5.60;99.90;;;;;;4901762;29;20059;-81
2022/04/08 03:35:49;;;;;;;7.15;1.30;;;5.50;99.90;;;;;;4901276;29;20123;-81
2022/04/08 03:38:15;;;;;;;8.30;1.58;;;5.50;99.90;;;;;;4899865;29;20139;-81
2022/04/08 03:40:40;;;;;;;6.93;1.48;;;5.50;99.90;;;;;;4882899;29;20503;-81
2022/04/08 03:43:06;;;;;;;5.45;1.05;;;5.50;99.90;;;;;;4899343;29;20056;-81
2022/04/08 03:45:31;;;;;;;5.60;1.08;;;5.50;99.90;;;;;;4898464;29;20041;-81
2022/04/08 03:47:57;;;;;;;2.85;0.80;;;5.50;99.90;;;;;;4900500;29;20052;-81
2022/04/08 03:50:26;;;;;;;3.92;1.08;;;5.50;99.90;;;;;;4901055;29;20048;-81
2022/04/08 03:52:51;;;;;;;8.40;1.95;;;5.40;99.90;;;;;;4899797;29;20056;-81
2022/04/08 03:55:17;;;;;;;7.20;2.80;;;5.50;99.90;;;;;;4883099;29;20488;-81
2022/04/08 03:57:43;;;;;;;5.75;1.85;;;5.40;99.90;;;;;;4900948;29;20068;-81
2022/04/08 04:00:09;;;;;;;6.38;1.42;;;5.30;99.90;;;;;;4898211;29;20059;-82
2022/04/08 04:02:35;;;;;;;4.80;1.30;;;5.20;99.90;;;;;;4899714;29;20395;-82
2022/04/08 04:05:02;;;;;;;5.88;1.33;;;5.10;99.90;;;;;;4897852;29;20056;-82
2022/04/08 04:07:28;;;;;;;8.02;1.52;;;5.00;99.90;;;;;;4900329;29;20080;-82
2022/04/08 04:09:54;;;;;;;7.30;1.30;;;5.00;99.90;;;;;;4900303;29;20033;-82
2022/04/08 04:12:20;;;;;;;5.78;1.10;;;5.10;99.90;;;;;;4899991;29;20056;-82
2022/04/08 04:14:45;;;;;;;4.57;1.10;;;5.10;99.90;;;;;;4899997;29;20044;-82
2022/04/08 04:17:11;;;;;;;5.68;1.30;;;5.20;99.90;;;;;;4882772;29;20072;-82
2022/04/08 04:19:37;;;;;;;5.88;1.77;;;5.30;99.90;;;;;;4882882;29;20144;-82
2022/04/08 04:22:04;;;;;;;4.53;1.40;;;5.30;99.90;;;;;;4899514;29;20118;-81
2022/04/08 04:24:29;;;;;;;8.60;1.50;;;5.20;99.90;;;;;;4883244;29;20403;-85
2022/04/08 04:26:55;;;;;;;5.80;1.83;;;5.20;99.90;;;;;;4898569;29;20075;-85
2022/04/08 04:29:21;;;;;;;4.53;1.30;;;5.20;99.90;;;;;;4882043;29;20045;-85
2022/04/08 04:31:47;;;;;;;8.48;2.10;;;5.10;99.90;;;;;;4883424;29;20044;-86
2022/04/08 04:34:13;;;;;;;10.55;2.00;;;5.20;99.90;;;;;;4883121;29;20564;-86
2022/04/08 04:36:39;;;;;;;8.18;2.08;;;5.10;99.90;;;;;;4899541;29;20059;-87
2022/04/08 04:39:04;;;;;;;4.22;1.10;;;4.90;99.90;;;;;;4886819;29;20052;-88
2022/04/08 04:41:32;;;;;;;5.90;1.00;;;4.80;99.90;;;;;;4920850;29;20052;-89
2022/04/08 04:43:57;;;;;;;4.65;1.33;;;4.60;99.90;;;;;;4902250;29;20472;-87
2022/04/08 04:46:23;;;;;;;7.25;1.10;;;4.60;99.90;;;;;;4902806;29;20107;-87
2022/04/08 04:48:49;;;;;;;11.05;1.83;;;4.50;99.90;;;;;;4918233;29;20075;-86
2022/04/08 04:51:16;;;;;;;5.03;1.33;;;4.50;99.90;;;;;;4923396;29;20044;-85
2022/04/08 04:53:42;;;;;;;8.35;1.75;;;4.50;99.90;;;;;;4921008;29;20056;-86
2022/04/08 04:56:08;;;;;;;5.60;2.45;;;4.50;99.90;;;;;;4903646;29;20480;-86
2022/04/08 04:58:34;;;;;;;9.05;1.90;;;4.50;99.90;;;;;;4903891;29;20056;-86
2022/04/08 05:00:59;;;;;;;8.70;2.35;;;4.60;99.90;;;;;;4920951;29;20143;-86
2022/04/08 05:03:25;;;;;;;7.45;1.85;;;4.60;99.90;;;;;;4904141;29;20056;-86
2022/04/08 05:05:53;;;;;;;8.40;2.60;;;4.60;99.90;;;;;;4904002;29;20055;-85
2022/04/08 05:08:20;;;;;;;5.68;1.52;;;4.60;99.90;;;;;;4920611;29;20058;-85
2022/04/08 05:10:46;;;;;;;9.23;1.67;;;4.70;99.90;;;;;;4903716;29;20048;-86
2022/04/08 05:13:12;;;;;;;8.27;1.45;;;4.70;99.90;;;;;;4903638;29;20396;-86
2022/04/08 05:15:42;;;;;;;7.72;1.70;;;4.70;99.90;;;;;;4903662;29;20052;-86
2022/04/08 05:18:09;;;;;;;6.63;1.35;;;4.70;99.90;;;;;;4903825;29;20398;-85
2022/04/08 05:20:35;;;;;;;9.20;1.92;;;4.70;99.90;;;;;;4903495;29;20048;-86
2022/04/08 05:23:00;;;;;;;6.18;1.35;;;4.80;99.90;;;;;;4920509;29;20107;-86
2022/04/08 05:25:26;;;;;;;8.10;1.35;;;4.80;99.90;;;;;;4903403;29;20452;-86
2022/04/08 05:27:53;;;;;;;9.45;1.60;;;4.80;99.90;;;;;;4903437;29;20153;-86
2022/04/08 05:30:19;;;;;;;11.77;1.85;;;4.90;99.90;;;;;;4903398;29;20104;-86
2022/04/08 05:32:46;;;;;;;8.32;1.60;;;5.00;99.90;;;;;;4903281;29;20492;-86
2022/04/08 05:35:14;;;;;;;10.15;2.17;;;5.00;99.90;;;;;;4903150;29;20058;-86
2022/04/08 05:37:45;;;;;;;8.98;1.73;;;5.10;99.90;;;;;;4903436;29;20062;-86
2022/04/08 05:40:16;;;;;;;6.50;2.10;;;5.10;99.90;;;;;;4903080;29;20412;-86
2022/04/08 05:42:46;;;;;;;5.93;1.65;;;5.10;99.90;;;;;;4920240;29;20083;-86
2022/04/08 05:45:14;;;;;;;6.00;1.30;;;5.20;99.90;;;;;;4903092;29;20056;-86
2022/04/08 05:47:40;;;;;;;3.45;1.02;;;5.20;99.90;;;;;;4920242;29;20071;-88
2022/04/08 05:50:06;;;;;;;6.25;1.38;;;5.30;99.90;;;;;;4920170;29;20059;-87
2022/04/08 05:52:32;;;;;;;4.65;1.20;;;5.30;99.90;;;;;;4903219;29;20111;-87
2022/04/08 05:54:57;;;;;;;7.82;1.23;;;5.20;99.90;;;;;;4902920;29;20051;-87
2022/04/08 05:57:23;;;;;;;6.10;1.48;;;5.20;99.90;;;;;;4903251;29;20044;-86
2022/04/08 05:59:49;;;;;;;6.40;1.73;;;5.20;99.90;;;;;;4903026;29;20396;-87
2022/04/08 06:02:16;;;;;;;6.72;1.58;;;5.20;99.90;;;;;;4902738;29;20091;-87
2022/04/08 06:04:42;;;;;;;8.50;3.05;;;5.30;99.90;;;;;;4902705;29;20048;-87
2022/04/08 06:07:08;;;;;;;12.52;3.08;;;5.30;99.90;;;;;;4902690;29;20062;-87
2022/04/08 06:09:34;;;;;;;9.60;1.83;;;5.40;99.90;;;;;;4919790;29;20040;-87
2022/04/08 06:12:00;;;;;;;8.75;1.73;;;5.50;99.90;;;;;;4902745;29;20055;-86
2022/04/08 06:14:26;;;;;;;12.85;2.75;;;5.60;99.90;;;;;;4902601;29;20056;-87
2022/04/08 06:16:52;;;;;;;10.82;2.05;;;5.60;99.90;;;;;;4902475;29;20108;-86
2022/04/08 06:19:18;;;;;;;13.48;1.85;;;5.60;99.90;;;;;;4902513;29;20055;-88
2022/04/08 06:21:43;;;;;;;13.00;1.88;;;5.60;99.90;;;;;;4918735;29;20044;-87
2022/04/08 06:24:09;;;;;;;9.80;2.30;;;5.50;99.90;;;;;;4902444;29;20147;-87
2022/04/08 06:26:36;;;;;;;9.10;1.55;;;5.50;99.90;;;;;;4902615;29;20103;-87
2022/04/08 06:29:02;;;;;;;7.93;2.15;;;5.50;99.90;;;;;;4902333;29;20083;-87
2022/04/08 06:31:30;;;;;;;13.13;2.58;;;5.40;99.90;;;;;;4902648;29;20040;-86
2022/04/08 06:33:58;;;;;;;8.52;1.73;;;5.50;99.90;;;;;;4918995;29;20412;-86
2022/04/08 06:36:24;;;;;;;9.98;2.28;;;5.50;99.90;;;;;;4902236;29;20548;-87
2022/04/08 06:38:50;;;;;;;6.97;1.88;;;5.60;99.90;;;;;;4901916;29;20052;-86
2022/04/08 06:41:16;;;;;;;7.07;1.65;;;5.70;99.90;;;;;;4919116;29;20082;-87
2022/04/08 06:43:41;;;;;;;7.13;1.60;;;5.80;99.90;;;;;;4902242;29;20044;-88
2022/04/08 06:46:07;;;;;;;9.55;2.25;;;5.80;99.90;;;;;;4902051;29;20111;-87
2022/04/08 06:48:33;;;;;;;5.13;1.20;;;5.80;99.90;;;;;;4902090;29;20083;-86
2022/04/08 06:51:00;;;;;;;10.18;1.77;;;5.90;99.90;;;;;;4902154;29;20059;-86
2022/04/08 06:53:26;;;;;;;6.60;1.10;;;6.00;99.90;;;;;;4902030;29;20441;-86
2022/04/08 06:55:52;;;;;;;8.27;1.60;;;6.10;99.90;;;;;;4918872;29;20059;-87
2022/04/08 06:58:21;;;;;;;9.15;1.73;;;6.30;99.90;;;;;;4917421;29;20040;-87
2022/04/08 07:00:46;;;;;;;8.40;1.40;;;6.50;99.90;;;;;;4904708;29;20118;-85
2022/04/08 07:03:12;;;;;;;8.27;1.77;;;6.70;99.90;;;;;;4896565;29;20060;-90
2022/04/08 07:05:38;;;;;;;9.70;1.92;;;6.90;99.90;;;;;;4918532;29;20079;-87
2022/04/08 07:08:03;;;;;;;8.63;1.58;;;7.00;99.90;;;;;;4918335;29;20056;-83
2022/04/08 07:10:29;;;;;;;7.40;1.92;;;6.90;99.90;;;;;;4918395;29;20036;-84
2022/04/08 07:12:55;;;;;;;4.57;0.90;;;6.80;99.90;;;;;;4917643;29;20054;-81
2022/04/08 07:15:20;;;;;;;5.95;1.48;;;6.50;99.90;;;;;;4918244;29;20404;-84
2022/04/08 07:17:46;;;;;;;4.53;1.10;;;6.30;99.90;;;;;;4918147;29;20052;-84
2022/04/08 07:20:14;;;;;;;7.45;1.38;;;6.20;99.90;;;;;;4901180;29;20056;-83
2022/04/08 07:22:41;;;;;;;8.13;1.80;;;6.10;99.90;;;;;;4901093;29;20055;-84
2022/04/08 07:25:07;;;;;;;10.20;1.45;;;6.20;99.90;;;;;;4917808;29;20495;-84
2022/04/08 07:27:45;;;;;;;6.28;1.20;;;6.40;99.90;;;;;;4901067;29;20381;-83
2022/04/08 07:30:12;;;;;;;4.82;1.42;;;6.60;99.90;;;;;;4918252;29;20048;-83
2022/04/08 07:32:37;;;;;;;6.43;1.98;;;6.70;99.90;;;;;;4918147;29;20148;-82
2022/04/08 07:35:03;;;;;;;5.97;1.33;;;6.90;99.90;;;;;;4900921;29;20064;-83
2022/04/08 07:37:32;;;;;;;6.30;1.52;;;7.10;99.90;;;;;;4901092;29;20111;-86
2022/04/08 07:39:58;;;;;;;10.77;1.92;;;7.20;99.90;;;;;;4917099;29;20456;-88
2022/04/08 07:42:25;;;;;;;6.10;1.30;;;7.30;99.90;;;;;;4900702;29;20412;-86
2022/04/08 07:44:52;;;;;;;7.28;1.60;;;7.40;99.90;;;;;;4900890;29;20395;-85
2022/04/08 07:47:19;;;;;;;14.35;1.63;;;7.60;99.90;;;;;;4900999;29;20552;-87
2022/04/08 07:49:46;;;;;;;10.55;2.33;;;7.80;99.90;;;;;;4900697;29;20131;-89
2022/04/08 07:52:11;;;;;;;8.88;1.55;;;8.00;99.90;;;;;;4900595;29;20047;-87
2022/04/08 07:54:37;;;;;;;13.20;2.25;;;8.00;99.90;;;;;;4900588;29;20059;-87
2022/04/08 07:57:03;;;;;;;10.63;1.60;;;7.90;99.90;;;;;;4900128;29;20044;-86
2022/04/08 07:59:29;;;;;;;6.13;1.42;;;7.80;99.90;;;;;;4916997;29;20111;-85
2022/04/08 08:01:54;;;;;;;8.98;1.58;;;7.70;99.90;;;;;;4900602;29;20048;-86
2022/04/08 08:04:21;;;;;;;4.57;1.02;;;7.60;99.90;;;;;;4915800;29;20048;-86
2022/04/08 08:06:47;;;;;;;7.13;1.00;;;7.70;99.90;;;;;;4891037;29;20396;-87
2022/04/08 08:09:13;;;;;;;14.68;2.10;;;7.90;99.90;;;;;;4906873;29;20481;-88
2022/04/08 08:11:38;;;;;;;14.52;1.95;;;7.90;99.90;;;;;;4881917;29;20048;-87
2022/04/08 08:14:04;;;;;;;10.13;1.60;;;7.90;99.90;;;;;;4898242;29;20509;-88
2022/04/08 08:16:30;;;;;;;9.02;1.58;;;7.70;99.90;;;;;;4881248;29;20063;-87
2022/04/08 08:18:56;;;;;;;9.93;1.10;;;7.70;99.90;;;;;;4881255;29;20056;-88
2022/04/08 08:21:26;;;;;;;13.05;1.25;;;8.00;99.90;;;;;;4881402;29;20044;-87
2022/04/08 08:23:53;;;;;;;4.78;1.33;;;8.20;99.90;;;;;;4897625;29;20044;-86
2022/04/08 08:26:18;;;;;;;8.13;1.30;;;8.20;99.90;;;;;;4898070;29;20678;-87
2022/04/08 08:28:44;;;;;;;9.15;1.38;;;8.40;99.90;;;;;;4881445;29;20147;-86
2022/04/08 08:31:10;;;;;;;7.15;1.52;;;8.40;99.90;;;;;;4916385;29;20103;-86
2022/04/08 08:33:36;;;;;;;5.93;1.00;;;8.40;99.90;;;;;;4916959;29;20043;-87
2022/04/08 08:36:02;;;;;;;10.52;2.08;;;8.10;99.90;;;;;;4916981;29;20440;-89
2022/04/08 08:38:28;;;;;;;7.43;0.73;;;7.50;99.90;;;;;;4916786;29;20072;-88
2022/04/08 08:40:55;;;;;;;5.15;1.42;;;7.20;99.90;;;;;;4899242;29;20092;-89
2022/04/08 08:43:20;;;;;;;2.78;0.70;;;7.10;99.90;;;;;;4900377;29;20119;-87
2022/04/08 08:45:48;;;;;;;1.88;0.68;;;7.00;99.90;;;;;;4899893;29;20052;-87
2022/04/08 08:48:15;;;;;;;3.75;0.82;;;7.00;99.90;;;;;;4916762;29;20048;-85
2022/04/08 08:50:46;;;;;;;2.00;0.50;;;7.10;99.90;;;;;;4914977;29;20048;-85
2022/04/08 08:53:17;;;;;;;2.95;0.77;;;7.30;99.90;;;;;;4898601;29;20091;-84
2022/04/08 08:55:42;;;;;;;1.85;0.70;;;7.50;99.90;;;;;;4898602;29;20056;-84
2022/04/08 08:58:08;;;;;;;2.92;1.20;;;7.80;99.90;;;;;;4899643;29;20052;-84
2022/04/08 09:00:35;;;;;;;6.57;1.20;;;8.00;99.90;;;;;;4916927;29;20552;-84
2022/04/08 09:03:03;;;;;;;5.95;1.45;;;8.20;99.90;;;;;;4916756;29;20127;-84
2022/04/08 09:05:29;;;;;;;3.63;0.90;;;8.30;99.90;;;;;;4917086;29;20092;-84
2022/04/08 09:08:05;;;;;;;6.13;1.33;;;8.50;99.90;;;;;;4916719;29;20048;-87
2022/04/08 09:10:33;;;;;;;7.45;2.00;;;8.60;99.90;;;;;;4899821;29;20062;-87
2022/04/08 09:13:00;;;;;;;3.72;1.08;;;8.70;99.90;;;;;;4899503;29;20054;-88
2022/04/08 09:15:27;;;;;;;7.13;1.42;;;8.90;99.90;;;;;;4899808;29;20444;-88
2022/04/08 09:17:53;;;;;;;7.03;1.30;;;8.80;99.90;;;;;;4900051;29;20048;-92
2022/04/08 09:20:19;;;;;;;4.90;1.30;;;9.00;99.90;;;;;;4899666;29;20506;-93
2022/04/08 09:22:55;;;;;;;7.55;1.40;;;9.00;99.90;;;;;;4916555;29;20412;-92
2022/04/08 09:25:26;;;;;;;6.60;1.67;;;9.00;99.90;;;;;;4900092;29;20110;-88
2022/04/08 09:27:55;;;;;;;5.28;1.70;;;9.20;99.90;;;;;;4899730;29;20131;-88
2022/04/08 09:30:20;;;;;;;6.00;1.20;;;9.20;99.90;;;;;;4899635;29;20060;-89
2022/04/08 09:32:46;;;;;;;7.00;2.05;;;9.20;99.90;;;;;;4899925;29;20051;-88
2022/04/08 09:35:18;;;;;;;5.78;1.10;;;9.00;99.90;;;;;;4917454;29;20131;-87
2022/04/08 09:37:58;;;;;;;6.45;1.33;;;8.90;99.90;;;;;;4903264;29;20176;-89
2022/04/08 09:40:24;;;;;;;7.82;1.48;;;9.00;99.90;;;;;;4902920;29;20131;-86
2022/04/08 09:42:50;;;;;;;6.80;1.13;;;9.20;99.90;;;;;;4903588;29;20139;-83
2022/04/08 09:45:27;;;;;;;8.32;1.60;;;9.40;99.90;;;;;;4902932;29;20129;-84
2022/04/08 09:47:52;;;;;;;7.13;1.30;;;9.40;99.90;;;;;;4902934;29;20087;-85
2022/04/08 09:50:18;;;;;;;5.35;1.00;;;9.20;99.90;;;;;;4903186;29;20084;-84
2022/04/08 09:52:45;;;;;;;13.05;1.50;;;9.20;99.90;;;;;;4919916;29;20048;-84
2022/04/08 09:55:11;;;;;;;6.25;1.70;;;9.10;99.90;;;;;;4919674;29;20047;-85
2022/04/08 09:57:40;;;;;;;9.48;1.45;;;9.10;99.90;;;;;;4902031;29;20055;-82
2022/04/08 10:00:07;;;;;;;6.20;1.60;;;9.00;99.90;;;;;;4902889;29;20101;-83
2022/04/08 10:02:35;;;;;;;9.23;1.35;;;9.10;99.90;;;;;;4902911;29;20472;-84
2022/04/08 10:05:02;;;;;;;9.68;1.55;;;9.00;99.90;;;;;;4902435;29;20056;-84
2022/04/08 10:07:29;;;;;;;7.90;1.27;;;9.00;99.90;;;;;;4902727;29;20063;-84
2022/04/08 10:10:10;;;;;;;4.70;1.50;;;9.00;99.90;;;;;;4902837;29;20183;-86
2022/04/08 10:12:51;;;;;;;7.90;1.80;;;8.90;99.90;;;;;;4902449;29;20139;-86
2022/04/08 10:15:23;;;;;;;7.53;1.17;;;8.70;99.90;;;;;;4902317;29;20059;-85
2022/04/08 10:17:58;;;;;;;7.32;1.58;;;8.70;99.90;;;;;;4902473;29;20040;-82
2022/04/08 10:20:24;;;;;;;6.32;1.30;;;9.00;99.90;;;;;;4902556;29;20059;-81
2022/04/08 10:22:52;;;;;;;6.10;1.20;;;9.20;99.90;;;;;;4902138;29;20055;-81
2022/04/08 10:25:18;;;;;;;6.78;1.00;;;9.50;99.90;;;;;;4919046;29;20040;-82
2022/04/08 10:27:45;;;;;;;4.85;0.90;;;9.70;99.90;;;;;;4902124;29;20048;-82
2022/04/08 10:30:23;;;;;;;6.63;0.93;;;9.60;99.90;;;;;;4919276;29;20044;-82
2022/04/08 10:33:02;;;;;;;9.45;1.38;;;9.70;99.90;;;;;;4902095;29;20098;-82
2022/04/08 10:35:29;;;;;;;5.90;1.00;;;9.70;99.90;;;;;;4919134;29;20061;-82
2022/04/08 10:38:06;;;;;;;12.20;1.88;;;9.80;99.90;;;;;;4918894;29;20393;-83
2022/04/08 10:40:40;;;;;;;8.57;1.20;;;9.80;99.90;;;;;;4901850;29;20060;-79
2022/04/08 10:43:10;;;;;;;3.47;1.00;;;9.90;99.90;;;;;;4918984;29;20106;-81
2022/04/08 10:45:39;;;;;;;7.28;1.38;;;10.00;99.90;;;;;;4919006;29;20044;-82
2022/04/08 10:48:10;;;;;;;5.38;1.38;;;10.10;99.90;;;;;;4918163;29;20047;-81
2022/04/08 10:50:36;;;;;;;5.95;1.15;;;10.20;99.90;;;;;;4918967;29;20044;-81
2022/04/08 10:53:07;;;;;;;7.03;1.33;;;10.00;99.90;;;;;;4918815;29;20036;-81
2022/04/08 10:55:48;;;;;;;10.93;1.30;;;9.90;99.90;;;;;;4918952;29;20052;-81
2022/04/08 10:58:15;;;;;;;7.22;2.25;;;10.00;99.90;;;;;;4901552;29;20119;-82
2022/04/08 11:00:42;;;;;;;8.27;1.10;;;10.20;99.90;;;;;;4918429;29;20572;-81
2022/04/08 11:03:10;;;;;;;4.53;1.27;;;10.20;99.90;;;;;;4918371;29;20063;-81
2022/04/08 11:05:39;;;;;;;8.13;1.30;;;10.00;99.90;;;;;;4918704;29;20051;-80
2022/04/08 11:08:07;;;;;;;4.38;1.08;;;9.90;99.90;;;;;;4918669;29;20055;-81
2022/04/08 11:10:32;;;;;;;8.63;1.90;;;9.90;99.90;;;;;;4918355;29;20139;-80
2022/04/08 11:13:00;;;;;;;10.52;1.13;;;10.20;99.90;;;;;;4901435;29;20100;-81
2022/04/08 11:15:30;;;;;;;8.48;1.20;;;10.20;99.90;;;;;;4901094;29;20102;-80
2022/04/08 11:17:59;;;;;;;8.00;1.10;;;10.30;99.90;;;;;;4918402;29;20052;-80
2022/04/08 11:20:24;;;;;;;6.55;1.98;;;10.40;99.90;;;;;;4901370;29;20051;-80
2022/04/08 11:22:55;;;;;;;4.47;0.88;;;10.20;99.90;;;;;;4917974;29;20059;-83
2022/04/08 11:25:26;;;;;;;9.93;1.83;;;10.00;99.90;;;;;;4918310;29;20055;-82
2022/04/08 11:28:01;;;;;;;9.38;1.35;;;9.60;99.90;;;;;;4901117;29;20523;-83
2022/04/08 11:30:28;;;;;;;8.00;1.10;;;9.40;99.90;;;;;;4901213;29;20047;-83
2022/04/08 11:32:53;;;;;;;6.75;1.85;;;9.30;99.90;;;;;;4918231;29;20127;-80
2022/04/08 11:35:19;;;;;;;9.27;1.38;;;9.10;99.90;;;;;;4900707;29;20135;-82
2022/04/08 11:37:45;;;;;;;3.15;0.88;;;9.00;99.90;;;;;;4900750;29;20067;-81
2022/04/08 11:40:17;;;;;;;2.63;0.80;;;8.90;99.90;;;;;;4900704;29;20056;-82
2022/04/08 11:42:44;;;;;;;2.97;0.70;;;8.90;99.90;;;;;;4917814;29;20064;-80
2022/04/08 11:45:11;;;;;;;5.25;0.90;;;8.80;99.90;;;;;;4917885;29;20048;-80
2022/04/08 11:47:40;;;;;;;3.35;0.88;;;8.90;99.90;;;;;;4900486;29;20058;-80
2022/04/08 11:50:07;;;;;;;5.38;1.00;;;9.10;99.90;;;;;;4917566;29;20478;-81
2022/04/08 11:52:34;;;;;;;6.53;2.00;;;9.40;99.90;;;;;;4917560;29;20059;-81
2022/04/08 11:55:05;;;;;;;6.03;1.67;;;9.50;99.90;;;;;;4917530;29;20075;-82
2022/04/08 11:57:32;;;;;;;5.82;0.95;;;9.80;99.90;;;;;;4899699;29;20064;-82
2022/04/08 11:59:59;;;;;;;10.75;2.25;;;10.10;99.90;;;;;;4900409;29;20048;-82
2022/04/08 12:02:25;;;;;;;4.85;1.25;;;10.20;99.90;;;;;;4900197;29;20048;-81
2022/04/08 12:04:51;;;;;;;7.55;1.23;;;10.30;99.90;;;;;;4900167;29;20055;-82
2022/04/08 12:07:25;;;;;;;8.48;1.02;;;10.40;99.90;;;;;;4900683;29;20119;-81
2022/04/08 12:10:00;;;;;;;6.55;0.70;;;10.20;99.90;;;;;;4900167;29;20060;-81
2022/04/08 12:12:29;;;;;;;8.80;1.33;;;10.30;99.90;;;;;;4917412;29;20051;-81
2022/04/08 12:15:05;;;;;;;4.05;0.80;;;10.20;99.90;;;;;;4900211;29;20063;-81
2022/04/08 12:17:37;;;;;;;7.82;1.13;;;10.10;99.90;;;;;;4917527;29;20063;-80
2022/04/08 12:20:03;;;;;;;4.40;0.93;;;10.10;99.90;;;;;;4900296;29;20099;-80
2022/04/08 12:22:32;;;;;;;5.90;0.98;;;10.30;99.90;;;;;;4900556;29;20048;-81
2022/04/08 12:24:59;;;;;;;4.20;1.52;;;10.30;99.90;;;;;;4900200;29;20479;-80
2022/04/08 12:27:30;;;;;;;6.00;1.35;;;10.40;99.90;;;;;;4899161;29;20064;-80
2022/04/08 12:29:59;;;;;;;6.10;1.13;;;10.30;99.90;;;;;;4909141;29;20048;-80
2022/04/08 12:32:33;;;;;;;6.22;1.10;;;10.20;99.90;;;;;;4891935;29;20054;-80
2022/04/08 12:34:59;;;;;;;4.15;0.93;;;10.20;99.90;;;;;;4917395;29;20129;-79
2022/04/08 12:37:25;;;;;;;7.03;0.70;;;10.30;99.90;;;;;;4899709;29;20052;-79
2022/04/08 12:39:50;;;;;;;6.03;1.20;;;10.30;99.90;;;;;;4899964;29;20467;-79
2022/04/08 12:42:16;;;;;;;5.05;1.00;;;10.20;99.90;;;;;;4916676;29;20083;-79
2022/04/08 12:44:41;;;;;;;6.95;1.42;;;10.20;99.90;;;;;;4900029;29;20396;-79
2022/04/08 12:47:07;;;;;;;9.57;1.10;;;10.10;99.90;;;;;;4899806;29;20055;-78
2022/04/08 12:49:33;;;;;;;5.90;0.82;;;10.20;99.90;;;;;;4917275;29;20044;-78
2022/04/08 12:51:59;;;;;;;6.93;1.02;;;10.30;99.90;;;;;;4917117;29;20059;-79